createdAt,value
2018-12-13T00:02:11.405Z,0.59
2018-12-13T00:04:39.201Z,0.51
2018-12-13T00:07:06.799Z,0.57
2018-12-13T00:09:34.420Z,0.42
2018-12-13T00:12:02.767Z,0.52
2018-12-13T00:14:30.394Z,0.53
2018-12-13T00:16:58.005Z,0.48
2018-12-13T00:19:25.659Z,0.47
2018-12-13T00:21:53.662Z,0.40
2018-12-13T00:24:21.346Z,0.45
2018-12-13T00:26:49.289Z,0.46
2018-12-13T00:29:17.159Z,0.46
2018-12-13T00:31:44.721Z,0.41
2018-12-13T00:34:12.293Z,0.45
2018-12-13T00:36:39.957Z,0.45
2018-12-13T00:39:07.617Z,0.48
2018-12-13T00:41:35.150Z,0.42
2018-12-13T00:44:02.884Z,0.37
2018-12-13T00:46:30.498Z,0.34
2018-12-13T00:48:58.048Z,0.30
2018-12-13T00:51:25.718Z,0.31
2018-12-13T00:53:53.253Z,0.32
2018-12-13T00:56:20.789Z,0.36
2018-12-13T00:58:48.411Z,0.40
2018-12-13T01:01:16.144Z,0.42
2018-12-13T01:03:43.757Z,0.46
2018-12-13T01:06:11.420Z,0.42
2018-12-13T01:08:39.079Z,0.39
2018-12-13T01:11:06.653Z,0.36
2018-12-13T01:13:34.305Z,0.34
2018-12-13T01:16:01.877Z,0.30
2018-12-13T01:18:29.418Z,0.25
2018-12-13T01:20:57.131Z,0.24
2018-12-13T01:23:24.857Z,0.28
2018-12-13T01:25:52.565Z,0.29
2018-12-13T01:28:20.196Z,0.31
2018-12-13T01:30:48.408Z,0.33
2018-12-13T01:33:15.917Z,0.31
2018-12-13T01:35:43.463Z,0.31
2018-12-13T01:38:11.071Z,0.28
2018-12-13T01:40:38.667Z,0.26
2018-12-13T01:43:06.251Z,0.32
2018-12-13T01:45:34.289Z,0.28
2018-12-13T01:48:01.847Z,0.30
2018-12-13T01:50:29.642Z,0.27
2018-12-13T01:52:57.576Z,0.21
2018-12-13T01:55:25.427Z,0.20
2018-12-13T01:57:52.998Z,0.24
2018-12-13T02:00:20.565Z,0.16
2018-12-13T02:02:48.050Z,0.20
2018-12-13T02:05:15.818Z,0.09
2018-12-13T02:07:43.322Z,0.14
2018-12-13T02:10:11.169Z,0.13
2018-12-13T02:12:38.771Z,-0.01
2018-12-13T02:15:06.576Z,-0.02
2018-12-13T02:17:34.370Z,0.02
2018-12-13T02:20:02.060Z,-0.02
2018-12-13T02:22:29.673Z,-0.04
2018-12-13T02:24:57.302Z,-0.14
2018-12-13T02:27:24.871Z,-0.11
2018-12-13T02:29:52.433Z,-0.11
2018-12-13T02:32:20.017Z,-0.14
2018-12-13T02:34:47.638Z,-0.19
2018-12-13T02:37:15.173Z,-0.22
2018-12-13T02:39:42.858Z,-0.19
2018-12-13T02:42:10.662Z,-0.25
2018-12-13T02:44:38.305Z,-0.25
2018-12-13T02:47:05.899Z,-0.18
2018-12-13T02:49:33.449Z,-0.12
2018-12-13T02:52:01.101Z,-0.05
2018-12-13T02:54:28.741Z,0.09
2018-12-13T02:56:56.343Z,0.10
2018-12-13T02:59:23.865Z,0.17
2018-12-13T03:01:51.791Z,0.16
2018-12-13T03:04:19.328Z,0.16
2018-12-13T03:06:46.863Z,0.25
2018-12-13T03:09:14.484Z,0.34
2018-12-13T03:11:42.077Z,0.30
2018-12-13T03:14:09.666Z,0.41
2018-12-13T03:16:37.313Z,0.46
2018-12-13T03:19:04.829Z,0.53
2018-12-13T03:21:32.522Z,0.60
2018-12-13T03:24:00.278Z,0.60
2018-12-13T03:26:27.862Z,0.58
2018-12-13T03:28:55.396Z,0.49
2018-12-13T03:31:22.980Z,0.45
2018-12-13T03:33:50.719Z,0.41
2018-12-13T03:36:18.249Z,0.40
2018-12-13T03:38:45.835Z,0.39
2018-12-13T03:41:13.355Z,0.38
2018-12-13T03:43:40.977Z,0.40
2018-12-13T03:46:08.459Z,0.42
2018-12-13T03:48:35.995Z,0.51
2018-12-13T03:51:04.207Z,0.58
2018-12-13T03:53:31.822Z,0.67
2018-12-13T03:55:59.405Z,0.71
2018-12-13T03:58:26.941Z,0.81
2018-12-13T04:00:54.430Z,0.85
2018-12-13T04:03:22.086Z,0.90
2018-12-13T04:05:49.713Z,0.90
2018-12-13T04:08:17.278Z,0.97
2018-12-13T04:10:45.029Z,1.01
2018-12-13T04:13:12.646Z,1.12
2018-12-13T04:15:40.260Z,1.20
2018-12-13T04:18:07.850Z,1.29
2018-12-13T04:20:35.449Z,1.42
2018-12-13T04:23:02.982Z,1.40
2018-12-13T04:25:30.544Z,1.40
2018-12-13T04:27:58.210Z,1.41
2018-12-13T04:30:25.838Z,1.51
2018-12-13T04:32:53.332Z,1.52
2018-12-13T04:35:20.983Z,1.61
2018-12-13T04:37:48.585Z,1.59
2018-12-13T04:40:16.100Z,1.64
2018-12-13T04:42:43.705Z,1.68
2018-12-13T04:45:11.442Z,1.59
2018-12-13T04:47:39.021Z,1.63
2018-12-13T04:50:06.858Z,1.65
2018-12-13T04:52:34.490Z,1.64
2018-12-13T04:55:02.274Z,1.68
2018-12-13T04:57:29.766Z,1.66
2018-12-13T04:59:57.496Z,1.64
2018-12-13T05:02:25.226Z,1.67
2018-12-13T05:04:52.881Z,1.52
2018-12-13T05:07:20.469Z,1.47
2018-12-13T05:09:48.824Z,1.34
2018-12-13T05:12:17.110Z,1.38
2018-12-13T05:14:44.886Z,1.34
2018-12-13T05:17:12.531Z,1.32
2018-12-13T05:19:40.069Z,1.24
2018-12-13T05:22:07.737Z,1.25
2018-12-13T05:24:35.351Z,1.27
2018-12-13T05:27:02.953Z,1.24
2018-12-13T05:29:30.635Z,1.28
2018-12-13T05:31:58.482Z,1.26
2018-12-13T05:34:26.041Z,1.22
2018-12-13T05:36:53.579Z,1.24
2018-12-13T05:39:21.095Z,1.28
2018-12-13T05:41:48.749Z,1.35
2018-12-13T05:44:20.874Z,1.35
2018-12-13T05:46:48.452Z,1.35
2018-12-13T05:49:16.404Z,1.36
2018-12-13T05:51:43.999Z,1.39
2018-12-13T05:54:11.545Z,1.44
2018-12-13T05:56:39.337Z,1.38
2018-12-13T05:59:06.883Z,1.48
2018-12-13T06:01:34.382Z,1.53
2018-12-13T06:04:01.964Z,1.58
2018-12-13T06:06:29.547Z,1.58
2018-12-13T06:08:57.127Z,1.63
2018-12-13T06:11:24.996Z,1.65
2018-12-13T06:13:52.552Z,1.66
2018-12-13T06:16:20.131Z,1.63
2018-12-13T06:18:47.881Z,1.67
2018-12-13T06:21:15.410Z,1.64
2018-12-13T06:23:43.003Z,1.60
2018-12-13T06:26:11.386Z,1.59
2018-12-13T06:28:38.940Z,1.56
2018-12-13T06:31:06.498Z,1.52
2018-12-13T06:33:34.063Z,1.59
2018-12-13T06:36:01.593Z,1.60
2018-12-13T06:38:29.164Z,1.64
2018-12-13T06:43:41.219Z,1.62
2018-12-13T06:46:08.780Z,1.66
2018-12-13T06:48:36.312Z,1.68
2018-12-13T06:51:03.994Z,1.67
2018-12-13T06:53:31.529Z,1.61
2018-12-13T06:55:59.256Z,1.65
2018-12-13T06:58:26.829Z,1.55
2018-12-13T07:00:54.600Z,1.54
2018-12-13T07:03:22.277Z,1.57
2018-12-13T07:05:50.051Z,1.55
2018-12-13T07:08:17.790Z,1.64
2018-12-13T07:10:45.318Z,1.64
2018-12-13T07:13:12.893Z,1.64
2018-12-13T07:15:40.477Z,1.69
2018-12-13T07:18:08.452Z,1.64
2018-12-13T07:20:36.078Z,1.66
2018-12-13T07:23:03.596Z,1.58
2018-12-13T07:25:31.505Z,1.65
2018-12-13T07:27:59.473Z,1.69
2018-12-13T07:30:27.206Z,1.78
2018-12-13T07:32:55.010Z,1.74
2018-12-13T07:35:22.714Z,1.84
2018-12-13T07:37:50.396Z,1.81
2018-12-13T07:40:17.928Z,1.87
2018-12-13T07:42:45.573Z,1.88
2018-12-13T07:45:13.137Z,1.85
2018-12-13T07:47:40.839Z,1.92
2018-12-13T07:50:08.639Z,1.95
2018-12-13T07:52:36.225Z,1.95
2018-12-13T07:55:04.121Z,1.96
2018-12-13T07:57:31.741Z,2.03
2018-12-13T07:59:59.369Z,2.09
2018-12-13T08:02:26.927Z,2.14
2018-12-13T08:04:54.555Z,2.15
2018-12-13T08:07:22.273Z,2.12
2018-12-13T08:09:49.945Z,2.15
2018-12-13T08:12:17.632Z,2.25
2018-12-13T08:14:45.140Z,2.32
2018-12-13T08:17:12.720Z,2.31
2018-12-13T08:19:40.565Z,2.39
2018-12-13T08:22:08.422Z,2.49
2018-12-13T08:24:36.055Z,2.43
2018-12-13T08:27:03.701Z,2.49
2018-12-13T08:29:31.242Z,2.45
2018-12-13T08:31:58.878Z,2.53
2018-12-13T08:34:26.594Z,2.49
2018-12-13T08:36:54.142Z,2.41
2018-12-13T08:39:21.805Z,2.34
2018-12-13T08:41:49.434Z,2.44
2018-12-13T08:44:16.998Z,2.57
2018-12-13T08:46:44.513Z,2.58
2018-12-13T08:49:12.360Z,2.58
2018-12-13T08:51:39.881Z,2.61
2018-12-13T08:54:07.433Z,2.69
2018-12-13T08:56:34.982Z,2.72
2018-12-13T08:59:02.527Z,2.74
2018-12-13T09:01:30.326Z,2.66
2018-12-13T09:03:57.940Z,2.67
2018-12-13T09:06:25.629Z,2.75
2018-12-13T09:08:53.269Z,2.61
2018-12-13T09:11:21.004Z,2.60
2018-12-13T09:13:48.521Z,2.70
2018-12-13T09:16:16.114Z,2.71
2018-12-13T09:18:50.310Z,2.68
2018-12-13T09:21:18.070Z,2.81
2018-12-13T09:23:45.789Z,2.97
2018-12-13T09:26:13.445Z,3.03
2018-12-13T09:28:41.120Z,3.14
2018-12-13T09:31:08.666Z,3.06
2018-12-13T09:33:37.259Z,3.11
2018-12-13T09:36:04.765Z,3.09
2018-12-13T09:38:32.545Z,3.15
2018-12-13T09:41:00.183Z,3.26
2018-12-13T09:43:27.886Z,3.32
2018-12-13T09:45:55.577Z,3.40
2018-12-13T09:48:23.397Z,3.34
2018-12-13T09:50:51.141Z,3.44
2018-12-13T09:53:18.741Z,3.43
2018-12-13T09:55:46.412Z,3.49
2018-12-13T09:58:14.091Z,3.56
2018-12-13T10:00:41.593Z,3.69
2018-12-13T10:03:09.359Z,3.73
2018-12-13T10:05:36.845Z,3.72
2018-12-13T10:08:04.436Z,3.82
2018-12-13T10:10:31.949Z,3.90
2018-12-13T10:12:59.471Z,3.69
2018-12-13T10:15:32.040Z,3.77
2018-12-13T10:17:56.773Z,3.62
2018-12-13T10:20:24.446Z,3.62
2018-12-13T10:22:51.993Z,3.63
2018-12-13T10:25:19.539Z,3.72
2018-12-13T10:27:47.101Z,3.64
2018-12-13T10:30:14.741Z,3.62
2018-12-13T10:32:42.315Z,3.59
2018-12-13T10:35:11.519Z,3.63
2018-12-13T10:37:39.414Z,3.53
2018-12-13T10:40:07.299Z,3.70
2018-12-13T10:42:34.994Z,3.70
2018-12-13T10:45:02.693Z,3.82
2018-12-13T10:47:30.200Z,3.75
2018-12-13T10:49:57.898Z,3.66
2018-12-13T10:52:25.476Z,3.65
2018-12-13T10:54:53.587Z,3.67
2018-12-13T10:57:21.234Z,3.83
2018-12-13T10:59:48.778Z,3.88
2018-12-13T11:02:21.736Z,3.99
2018-12-13T11:04:49.370Z,3.98
2018-12-13T11:07:16.974Z,4.09
2018-12-13T11:09:44.636Z,4.04
2018-12-13T11:12:12.391Z,4.15
2018-12-13T11:14:39.980Z,4.19
2018-12-13T11:17:07.548Z,4.14
2018-12-13T11:19:35.153Z,4.18
2018-12-13T11:22:02.753Z,4.21
2018-12-13T11:24:30.553Z,4.31
2018-12-13T11:27:02.583Z,4.33
2018-12-13T11:29:35.790Z,4.33
2018-12-13T11:32:03.458Z,4.25
2018-12-13T11:34:30.945Z,4.37
2018-12-13T11:36:58.545Z,4.22
2018-12-13T11:39:26.204Z,4.09
2018-12-13T11:41:53.767Z,4.05
2018-12-13T11:44:21.484Z,3.98
2018-12-13T11:46:49.310Z,3.98
2018-12-13T11:49:16.785Z,3.64
2018-12-13T11:51:44.318Z,3.60
2018-12-13T11:54:17.195Z,3.55
2018-12-13T11:56:45.191Z,3.57
2018-12-13T11:59:12.822Z,3.56
2018-12-13T12:01:40.294Z,3.52
2018-12-13T12:04:07.815Z,3.41
2018-12-13T12:06:35.489Z,3.37
2018-12-13T12:09:04.213Z,3.47
2018-12-13T12:11:31.847Z,3.59
2018-12-13T12:13:59.431Z,3.58
2018-12-13T12:16:26.939Z,3.51
2018-12-13T12:18:54.450Z,3.52
2018-12-13T12:21:22.002Z,3.42
2018-12-13T12:23:49.500Z,3.38
2018-12-13T12:26:17.093Z,3.44
2018-12-13T12:28:44.661Z,3.43
2018-12-13T12:31:12.423Z,3.43
2018-12-13T12:33:39.917Z,3.26
2018-12-13T12:36:07.569Z,3.30
2018-12-13T12:38:35.092Z,3.20
2018-12-13T12:41:02.683Z,3.13
2018-12-13T12:43:30.188Z,3.18
2018-12-13T12:45:57.903Z,3.15
2018-12-13T12:48:25.441Z,3.18
2018-12-13T12:50:55.135Z,3.03
2018-12-13T12:53:22.841Z,3.08
2018-12-13T12:55:50.391Z,3.07
2018-12-13T12:58:18.080Z,3.06
2018-12-13T13:00:45.610Z,3.11
2018-12-13T13:03:13.260Z,3.11
2018-12-13T13:05:40.865Z,3.00
2018-12-13T13:08:08.367Z,2.92
2018-12-13T13:10:35.945Z,2.86
2018-12-13T13:13:03.617Z,2.88
2018-12-13T13:15:31.280Z,3.00
2018-12-13T13:17:58.823Z,2.98
2018-12-13T13:20:26.396Z,2.99
2018-12-13T13:22:53.879Z,2.89
2018-12-13T13:25:21.558Z,2.87
2018-12-13T13:27:49.110Z,2.79
2018-12-13T13:30:16.728Z,2.84
2018-12-13T13:32:44.223Z,2.68
2018-12-13T13:35:11.941Z,2.76
2018-12-13T13:37:39.451Z,2.77
2018-12-13T13:40:07.099Z,2.74
2018-12-13T13:42:34.832Z,2.60
2018-12-13T13:45:03.054Z,2.61
2018-12-13T13:47:30.563Z,2.61
2018-12-13T13:49:58.150Z,2.62
2018-12-13T13:52:25.726Z,2.57
2018-12-13T13:54:53.382Z,2.54
2018-12-13T13:57:20.943Z,2.57
2018-12-13T13:59:48.458Z,2.60
2018-12-13T14:02:16.030Z,2.53
2018-12-13T14:04:43.706Z,2.55
2018-12-13T14:07:11.241Z,2.44
2018-12-13T14:09:38.923Z,2.43
2018-12-13T14:12:06.435Z,2.37
2018-12-13T14:14:33.934Z,2.36
2018-12-13T14:17:01.537Z,2.42
2018-12-13T14:19:29.155Z,2.40
2018-12-13T14:21:56.653Z,2.33
2018-12-13T14:24:24.340Z,2.34
2018-12-13T14:26:52.045Z,2.30
2018-12-13T14:29:19.604Z,2.33
2018-12-13T14:31:47.113Z,2.30
2018-12-13T14:34:14.750Z,2.30
2018-12-13T14:36:42.381Z,2.31
2018-12-13T14:39:09.951Z,2.24
2018-12-13T14:41:37.524Z,2.17
2018-12-13T14:44:05.241Z,2.23
2018-12-13T14:46:32.737Z,2.21
2018-12-13T14:49:00.462Z,2.18
2018-12-13T14:51:28.900Z,2.18
2018-12-13T14:53:56.522Z,2.19
2018-12-13T14:56:24.185Z,2.22
2018-12-13T14:58:51.716Z,2.24
2018-12-13T15:01:19.269Z,2.28
2018-12-13T15:03:46.971Z,2.26
2018-12-13T15:06:14.623Z,2.32
2018-12-13T15:08:42.200Z,2.33
2018-12-13T15:11:09.734Z,2.31
2018-12-13T15:13:37.391Z,2.30
2018-12-13T15:16:06.517Z,2.35
2018-12-13T15:18:34.087Z,2.34
2018-12-13T15:21:01.631Z,2.32
2018-12-13T15:23:29.218Z,2.40
2018-12-13T15:25:57.156Z,2.37
2018-12-13T15:28:24.801Z,2.38
2018-12-13T15:30:52.478Z,2.35
2018-12-13T15:33:20.502Z,2.34
2018-12-13T15:35:48.152Z,2.42
2018-12-13T15:38:15.650Z,2.46
2018-12-13T15:40:43.342Z,2.48
2018-12-13T15:43:10.853Z,2.48
2018-12-13T15:45:38.557Z,2.55
2018-12-13T15:48:06.130Z,2.52
2018-12-13T15:50:33.785Z,2.52
2018-12-13T15:53:01.349Z,2.55
2018-12-13T15:55:28.856Z,2.52
2018-12-13T15:57:56.469Z,2.50
2018-12-13T16:00:24.247Z,2.52
2018-12-13T16:05:37.607Z,2.52
2018-12-13T16:08:05.245Z,2.55
2018-12-13T16:10:33.072Z,2.55
2018-12-13T16:13:00.669Z,2.59
2018-12-13T16:15:28.213Z,2.51
2018-12-13T16:17:55.785Z,2.61
2018-12-13T16:20:23.677Z,2.64
2018-12-13T16:22:51.334Z,2.62
2018-12-13T16:25:18.895Z,2.62
2018-12-13T16:27:46.537Z,2.61
2018-12-13T16:30:14.616Z,2.61
2018-12-13T16:32:42.255Z,2.64
2018-12-13T16:35:09.816Z,2.68
2018-12-13T16:37:37.519Z,2.70
2018-12-13T16:40:10.376Z,2.62
2018-12-13T16:42:34.941Z,2.75
2018-12-13T16:45:02.725Z,2.89
2018-12-13T16:47:30.297Z,2.83
2018-12-13T16:52:43.109Z,2.91
2018-12-13T16:55:10.829Z,2.95
2018-12-13T16:57:38.751Z,2.76
2018-12-13T17:00:06.968Z,2.89
2018-12-13T17:02:34.472Z,2.90
2018-12-13T17:05:03.500Z,2.82
2018-12-13T17:07:31.339Z,2.94
2018-12-13T17:09:58.875Z,2.94
2018-12-13T17:12:26.473Z,2.93
2018-12-13T17:14:54.137Z,2.93
2018-12-13T17:17:21.749Z,2.93
2018-12-13T17:19:49.271Z,2.91
2018-12-13T17:22:16.810Z,2.90
2018-12-13T17:24:44.475Z,2.93
2018-12-13T17:27:12.000Z,2.93
2018-12-13T17:29:39.674Z,2.86
2018-12-13T17:32:07.176Z,2.80
2018-12-13T17:34:34.890Z,2.86
2018-12-13T17:37:02.407Z,2.87
2018-12-13T17:39:30.193Z,2.88
2018-12-13T17:41:57.754Z,2.93
2018-12-13T17:44:25.294Z,2.94
2018-12-13T17:46:52.975Z,2.95
2018-12-13T17:49:20.634Z,2.93
2018-12-13T17:51:48.141Z,2.92
2018-12-13T17:54:15.676Z,2.82
2018-12-13T17:56:43.366Z,2.84
2018-12-13T17:59:10.891Z,2.90
2018-12-13T18:01:38.894Z,2.85
2018-12-13T18:04:06.767Z,2.83
2018-12-13T18:06:34.675Z,2.82
2018-12-13T18:09:02.446Z,2.86
2018-12-13T18:11:30.143Z,2.86
2018-12-13T18:13:57.836Z,2.83
2018-12-13T18:16:25.482Z,2.78
2018-12-13T18:18:53.148Z,2.73
2018-12-13T18:21:20.891Z,2.75
2018-12-13T18:23:48.586Z,2.71
2018-12-13T18:26:17.339Z,2.76
2018-12-13T18:28:44.889Z,2.79
2018-12-13T18:31:12.484Z,2.76
2018-12-13T18:33:40.253Z,2.71
2018-12-13T18:36:07.777Z,2.68
2018-12-13T18:38:35.549Z,2.68
2018-12-13T18:41:03.252Z,2.71
2018-12-13T18:43:30.792Z,2.59
2018-12-13T18:45:58.413Z,2.64
2018-12-13T18:48:26.027Z,2.63
2018-12-13T18:50:53.759Z,2.66
2018-12-13T18:53:21.405Z,2.67
2018-12-13T18:55:50.154Z,2.68
2018-12-13T18:58:17.781Z,2.69
2018-12-13T19:00:45.520Z,2.75
2018-12-13T19:03:13.027Z,2.72
2018-12-13T19:05:40.878Z,2.75
2018-12-13T19:08:08.479Z,2.74
2018-12-13T19:10:41.781Z,2.63
2018-12-13T19:13:06.010Z,2.67
2018-12-13T19:15:33.717Z,2.71
2018-12-13T19:18:02.027Z,2.72
2018-12-13T19:20:29.662Z,2.68
2018-12-13T19:22:57.265Z,2.65
2018-12-13T19:25:24.770Z,2.65
2018-12-13T19:27:52.344Z,2.63
2018-12-13T19:30:20.323Z,2.58
2018-12-13T19:32:47.914Z,2.59
2018-12-13T19:35:19.353Z,2.60
2018-12-13T19:37:45.434Z,2.68
2018-12-13T19:40:13.428Z,2.66
2018-12-13T19:42:40.941Z,2.65
2018-12-13T19:45:08.681Z,2.73
2018-12-13T19:47:36.310Z,2.72
2018-12-13T19:50:04.055Z,2.77
2018-12-13T19:52:31.753Z,2.68
2018-12-13T19:54:59.302Z,2.69
2018-12-13T19:57:26.854Z,2.67
2018-12-13T19:59:54.921Z,2.61
2018-12-13T20:02:22.653Z,2.58
2018-12-13T20:04:50.286Z,2.57
2018-12-13T20:07:18.261Z,2.60
2018-12-13T20:09:46.272Z,2.62
2018-12-13T20:12:13.777Z,2.55
2018-12-13T20:14:41.525Z,2.55
2018-12-13T20:17:09.060Z,2.60
2018-12-13T20:19:36.963Z,2.58
2018-12-13T20:22:04.653Z,2.55
2018-12-13T20:24:32.183Z,2.57
2018-12-13T20:26:59.757Z,2.50
2018-12-13T20:29:27.485Z,2.60
2018-12-13T20:31:55.166Z,2.63
2018-12-13T20:34:22.686Z,2.66
2018-12-13T20:36:50.199Z,2.68
2018-12-13T20:39:17.731Z,2.65
2018-12-13T20:41:45.238Z,2.74
2018-12-13T20:44:12.765Z,2.70
2018-12-13T20:46:40.285Z,2.71
2018-12-13T20:49:08.056Z,2.71
2018-12-13T20:51:35.564Z,2.59
2018-12-13T20:54:03.096Z,2.65
2018-12-13T20:56:30.683Z,2.61
2018-12-13T20:58:58.210Z,2.63
2018-12-13T21:01:25.833Z,2.63
2018-12-13T21:03:53.409Z,2.62
2018-12-13T21:06:20.995Z,2.59
2018-12-13T21:08:48.549Z,2.57
2018-12-13T21:11:16.112Z,2.61
2018-12-13T21:13:43.683Z,2.58
2018-12-13T21:16:11.224Z,2.58
2018-12-13T21:18:39.326Z,2.51
2018-12-13T21:21:07.107Z,2.44
2018-12-13T21:23:34.933Z,2.38
2018-12-13T21:26:02.697Z,2.44
2018-12-13T21:28:30.221Z,2.49
2018-12-13T21:30:57.850Z,2.55
2018-12-13T21:33:25.385Z,2.58
2018-12-13T21:35:53.011Z,2.50
2018-12-13T21:38:20.619Z,2.55
2018-12-13T21:40:48.142Z,2.58
2018-12-13T21:43:15.687Z,2.57
2018-12-13T21:45:43.468Z,2.58
2018-12-13T21:48:11.509Z,2.55
2018-12-13T21:50:39.228Z,2.45
2018-12-13T21:53:06.876Z,2.43
2018-12-13T21:55:34.681Z,2.51
2018-12-13T21:58:02.480Z,2.49
2018-12-13T22:00:30.078Z,2.51
2018-12-13T22:02:57.752Z,2.47
2018-12-13T22:05:25.594Z,2.47
2018-12-13T22:07:53.621Z,2.51
2018-12-13T22:10:21.280Z,2.47
2018-12-13T22:12:49.118Z,2.43
2018-12-13T22:15:16.867Z,2.35
2018-12-13T22:17:45.334Z,2.37
2018-12-13T22:20:14.179Z,2.32
2018-12-13T22:23:02.010Z,2.33
2018-12-13T22:25:43.671Z,2.39
2018-12-13T22:28:11.501Z,2.46
2018-12-13T22:36:50.265Z,2.43
2018-12-13T22:39:18.514Z,2.38
2018-12-13T22:42:18.986Z,2.38
2018-12-13T22:45:08.063Z,2.43
2018-12-13T22:47:36.209Z,2.45
2018-12-13T22:50:04.065Z,2.40
2018-12-13T22:52:31.682Z,2.46
2018-12-13T22:58:08.578Z,2.47
2018-12-13T23:00:36.386Z,2.43
2018-12-13T23:03:25.621Z,2.44
2018-12-13T23:05:54.665Z,2.37
2018-12-13T23:08:22.251Z,2.39
2018-12-13T23:10:52.688Z,2.45
2018-12-13T23:13:25.588Z,2.44
2018-12-13T23:15:54.806Z,2.42
2018-12-13T23:18:22.591Z,2.41
2018-12-13T23:20:50.683Z,2.40
2018-12-13T23:23:18.800Z,2.41
2018-12-13T23:25:46.335Z,2.42
2018-12-13T23:28:13.884Z,2.32
2018-12-13T23:30:41.572Z,2.32
2018-12-13T23:33:09.422Z,2.34
2018-12-13T23:35:36.931Z,2.33
2018-12-13T23:38:04.522Z,2.23
2018-12-13T23:40:32.114Z,2.22
2018-12-13T23:42:59.846Z,2.28
2018-12-13T23:45:27.778Z,2.23
2018-12-13T23:47:55.393Z,2.20
2018-12-13T23:50:22.949Z,2.22
2018-12-13T23:52:50.467Z,2.30
2018-12-13T23:55:18.009Z,2.32
2018-12-13T23:57:45.568Z,2.29
